Time;durP1;ratioP1;P1;durP2;ratioP2;P2;SDS_P1;SDS_P2;PMS_P1;PMS_P2;Temp;Humidity;BMP_temperature;BMP_pressure;BME280_temperature;BME280_humidity;BME280_pressure;Samples;Min_cycle;Max_cycle;Signal;HPM_P1;HPM_P2
2021/06/26 00:00:33;;;;;;;58.13;2.90;;;16.50;66.50;;;;;;5034069;28;20574;-72
2021/06/26 00:03:00;;;;;;;59.27;4.03;;;16.50;65.00;;;;;;5033736;28;20560;-72
2021/06/26 00:05:28;;;;;;;58.47;2.87;;;16.50;66.00;;;;;;5033963;28;20546;-72
2021/06/26 00:07:55;;;;;;;58.47;2.93;;;16.40;66.00;;;;;;5034015;28;20489;-72
2021/06/26 00:10:22;;;;;;;59.60;3.40;;;16.40;67.10;;;;;;5034090;28;20475;-72
2021/06/26 00:12:48;;;;;;;58.53;3.50;;;16.40;66.80;;;;;;5033446;28;20562;-73
2021/06/26 00:15:15;;;;;;;58.90;4.20;;;16.40;67.60;;;;;;5033945;28;20537;-72
2021/06/26 00:17:42;;;;;;;58.27;2.83;;;16.30;70.00;;;;;;5033881;28;20533;-72
2021/06/26 00:20:10;;;;;;;60.20;4.10;;;16.30;72.90;;;;;;5033513;28;20569;-73
2021/06/26 00:22:38;;;;;;;58.97;3.60;;;16.40;73.00;;;;;;5033532;28;20914;-72
2021/06/26 00:25:06;;;;;;;57.90;2.63;;;16.40;75.70;;;;;;5033621;28;20541;-72
2021/06/26 00:27:33;;;;;;;59.10;2.80;;;16.40;75.90;;;;;;5033815;28;20489;-73
2021/06/26 00:30:00;;;;;;;58.37;2.70;;;16.40;75.70;;;;;;5033646;28;20879;-72
2021/06/26 00:32:26;;;;;;;59.10;3.20;;;16.40;75.70;;;;;;5033023;28;20554;-72
2021/06/26 00:34:53;;;;;;;58.70;3.23;;;16.40;75.20;;;;;;5033348;28;20489;-72
2021/06/26 00:37:20;;;;;;;58.50;3.00;;;16.40;75.20;;;;;;5033618;28;20597;-72
2021/06/26 00:39:48;;;;;;;58.50;3.27;;;16.50;75.40;;;;;;5033477;28;20510;-72
2021/06/26 00:42:15;;;;;;;58.17;3.10;;;16.50;76.20;;;;;;5032899;28;20484;-72
2021/06/26 00:44:42;;;;;;;58.80;3.00;;;16.50;76.30;;;;;;5033250;28;20958;-72
2021/06/26 00:47:12;;;;;;;58.13;2.90;;;16.50;75.50;;;;;;5033098;28;20488;-72
2021/06/26 00:49:40;;;;;;;59.97;3.53;;;16.50;76.00;;;;;;5033422;28;20455;-72
2021/06/26 00:52:07;;;;;;;58.60;3.50;;;16.50;74.20;;;;;;5032917;28;20458;-72
2021/06/26 00:54:34;;;;;;;58.40;2.90;;;16.50;74.40;;;;;;5033177;28;20533;-72
2021/06/26 00:57:03;;;;;;;58.80;3.43;;;16.50;75.00;;;;;;5033026;28;20974;-72
2021/06/26 00:59:30;;;;;;;58.87;3.13;;;16.50;75.50;;;;;;5032954;28;20910;-72
2021/06/26 01:01:57;;;;;;;58.87;3.10;;;16.50;76.70;;;;;;5031821;28;20486;-72
2021/06/26 01:04:24;;;;;;;60.60;3.90;;;16.50;75.40;;;;;;5032916;28;20550;-73
2021/06/26 01:06:51;;;;;;;58.60;4.30;;;16.40;77.30;;;;;;5032855;28;20450;-72
2021/06/26 01:09:18;;;;;;;58.07;2.70;;;16.40;78.20;;;;;;5032860;28;20455;-72
2021/06/26 01:11:45;;;;;;;58.97;4.30;;;16.40;77.80;;;;;;5032512;28;20875;-72
2021/06/26 01:14:13;;;;;;;58.60;3.53;;;16.40;77.60;;;;;;5032629;28;20558;-72
2021/06/26 01:16:40;;;;;;;58.47;3.27;;;16.50;77.60;;;;;;5032693;28;20487;-72
2021/06/26 01:19:07;;;;;;;58.17;2.70;;;16.40;76.70;;;;;;5032706;28;20483;-72
2021/06/26 01:21:35;;;;;;;59.20;3.93;;;16.40;76.60;;;;;;5032338;28;20517;-72
2021/06/26 01:24:04;;;;;;;59.00;3.20;;;16.40;75.90;;;;;;5032397;28;21062;-72
2021/06/26 01:26:35;;;;;;;60.53;4.27;;;16.40;76.40;;;;;;5032565;28;20896;-72
2021/06/26 01:29:03;;;;;;;59.30;3.50;;;16.30;79.20;;;;;;5032693;28;20518;-73
2021/06/26 01:31:30;;;;;;;58.47;2.70;;;16.40;82.60;;;;;;5032194;28;20935;-72
2021/06/26 01:33:57;;;;;;;60.30;3.43;;;16.40;83.50;;;;;;5032178;28;20556;-73
2021/06/26 01:36:24;;;;;;;58.40;3.33;;;16.40;83.60;;;;;;5032372;28;20443;-72
2021/06/26 01:38:55;;;;;;;58.80;3.33;;;16.40;82.90;;;;;;5032344;28;20538;-72
2021/06/26 01:41:23;;;;;;;59.00;3.10;;;16.40;83.60;;;;;;5032027;28;20572;-72
2021/06/26 01:43:51;;;;;;;58.40;2.80;;;16.40;85.40;;;;;;5032157;28;20478;-72
2021/06/26 01:46:18;;;;;;;58.07;2.70;;;16.30;84.90;;;;;;5032056;28;20538;-73
2021/06/26 01:48:45;;;;;;;58.90;4.07;;;16.30;85.50;;;;;;5032048;28;20546;-73
2021/06/26 01:51:12;;;;;;;58.80;3.00;;;16.30;85.90;;;;;;5032068;28;20554;-72
2021/06/26 01:53:38;;;;;;;58.87;3.17;;;16.30;86.70;;;;;;5031833;28;20914;-72
2021/06/26 01:56:06;;;;;;;58.90;3.43;;;16.30;87.90;;;;;;5031863;28;20543;-73
2021/06/26 01:58:34;;;;;;;59.00;3.03;;;16.30;90.00;;;;;;5032227;28;20452;-73
2021/06/26 02:01:01;;;;;;;58.43;2.60;;;16.30;90.20;;;;;;5032063;28;20982;-72
2021/06/26 02:03:28;;;;;;;59.70;3.87;;;16.40;90.10;;;;;;5031694;28;20918;-73
2021/06/26 02:05:55;;;;;;;59.00;3.47;;;16.40;90.00;;;;;;5031983;28;20538;-72
2021/06/26 02:08:22;;;;;;;58.80;2.80;;;16.40;90.40;;;;;;5031892;28;20462;-72
2021/06/26 02:10:49;;;;;;;59.30;3.53;;;16.40;90.20;;;;;;5032044;28;20589;-72
2021/06/26 02:13:16;;;;;;;59.83;3.43;;;16.40;90.10;;;;;;5031335;28;20471;-72
2021/06/26 02:15:44;;;;;;;58.67;3.40;;;16.30;89.70;;;;;;5031921;28;20478;-72
2021/06/26 02:18:11;;;;;;;59.00;3.97;;;16.30;90.00;;;;;;5031928;28;20505;-72
2021/06/26 02:20:37;;;;;;;58.67;3.00;;;16.30;90.10;;;;;;5031554;28;20569;-72
2021/06/26 02:23:04;;;;;;;59.10;3.77;;;16.30;90.00;;;;;;5031070;28;20513;-72
2021/06/26 02:25:31;;;;;;;58.60;3.23;;;16.20;90.20;;;;;;5031590;28;20550;-72
2021/06/26 02:27:58;;;;;;;58.50;3.00;;;16.20;91.30;;;;;;5031844;28;20451;-72
2021/06/26 02:30:25;;;;;;;58.67;3.20;;;16.20;91.50;;;;;;5031779;28;20483;-72
2021/06/26 02:32:53;;;;;;;58.80;3.20;;;16.30;92.00;;;;;;5031352;28;20510;-72
2021/06/26 02:35:20;;;;;;;58.70;2.90;;;16.30;92.30;;;;;;5031637;28;20454;-72
2021/06/26 02:37:47;;;;;;;58.90;3.43;;;16.30;91.90;;;;;;5031808;28;20537;-72
2021/06/26 02:40:14;;;;;;;60.43;4.40;;;16.20;91.40;;;;;;5031632;28;20541;-72
2021/06/26 02:42:41;;;;;;;58.60;3.20;;;16.20;92.00;;;;;;5031301;28;20497;-72
2021/06/26 02:45:10;;;;;;;58.60;3.50;;;16.20;91.80;;;;;;5031646;28;20537;-72
2021/06/26 02:47:37;;;;;;;58.80;3.13;;;16.20;91.70;;;;;;5031417;28;20490;-72
2021/06/26 02:50:07;;;;;;;58.67;2.90;;;16.10;91.70;;;;;;5031838;28;20535;-72
2021/06/26 02:52:34;;;;;;;59.20;4.10;;;16.10;92.40;;;;;;5031308;28;20601;-72
2021/06/26 02:55:01;;;;;;;58.80;3.37;;;16.10;92.20;;;;;;5031401;28;20947;-71
2021/06/26 02:57:28;;;;;;;59.07;3.50;;;16.10;92.90;;;;;;5031557;28;20486;-72
2021/06/26 02:59:55;;;;;;;58.47;2.80;;;16.10;93.10;;;;;;5031432;28;20533;-72
2021/06/26 03:02:21;;;;;;;59.10;4.03;;;16.10;93.70;;;;;;5030868;28;20564;-72
2021/06/26 03:04:48;;;;;;;58.50;3.00;;;16.10;93.70;;;;;;5031228;28;20486;-72
2021/06/26 03:07:17;;;;;;;59.37;4.20;;;16.10;94.30;;;;;;5031429;28;20485;-72
2021/06/26 03:09:43;;;;;;;60.07;3.97;;;16.10;94.60;;;;;;5031428;28;20490;-72
2021/06/26 03:12:11;;;;;;;58.90;3.43;;;16.10;94.00;;;;;;5031015;28;20443;-72
2021/06/26 03:14:37;;;;;;;58.90;3.33;;;16.10;93.90;;;;;;5031315;28;21020;-72
2021/06/26 03:17:05;;;;;;;59.17;3.00;;;16.10;94.40;;;;;;5031105;28;20895;-72
2021/06/26 03:19:31;;;;;;;59.30;3.20;;;16.10;94.20;;;;;;5031413;28;20558;-72
2021/06/26 03:21:58;;;;;;;58.57;3.03;;;16.10;94.50;;;;;;5031138;28;20596;-72
2021/06/26 03:24:27;;;;;;;59.00;4.07;;;16.10;94.50;;;;;;5030938;28;20506;-72
2021/06/26 03:26:55;;;;;;;59.30;3.47;;;16.10;94.80;;;;;;5034289;28;20542;-72
2021/06/26 03:29:22;;;;;;;59.37;3.57;;;16.10;94.50;;;;;;5034626;28;20458;-72
2021/06/26 03:31:49;;;;;;;60.27;4.97;;;16.00;94.50;;;;;;5034202;28;20447;-72
2021/06/26 03:34:16;;;;;;;58.67;3.20;;;16.00;94.70;;;;;;5034810;28;20466;-72
2021/06/26 03:36:43;;;;;;;58.63;3.40;;;16.00;94.80;;;;;;5034762;28;20541;-72
2021/06/26 03:39:09;;;;;;;58.40;3.17;;;15.90;94.80;;;;;;5034541;28;20441;-72
2021/06/26 03:41:38;;;;;;;59.07;3.47;;;15.90;95.70;;;;;;5034193;28;20577;-72
2021/06/26 03:44:05;;;;;;;58.90;3.43;;;15.90;96.00;;;;;;5034280;28;20510;-72
2021/06/26 03:46:33;;;;;;;58.43;3.00;;;15.90;95.80;;;;;;5034322;28;20483;-72
2021/06/26 03:49:00;;;;;;;58.73;3.37;;;15.90;95.90;;;;;;5034474;28;20458;-72
2021/06/26 03:51:27;;;;;;;58.50;2.97;;;15.90;96.30;;;;;;5034212;28;20481;-72
2021/06/26 03:53:54;;;;;;;59.37;3.70;;;15.90;96.00;;;;;;5034241;28;20511;-72
2021/06/26 03:56:21;;;;;;;59.13;3.00;;;15.90;96.20;;;;;;5034078;28;20496;-72
2021/06/26 03:58:49;;;;;;;58.70;3.20;;;15.80;96.20;;;;;;5034055;28;20525;-72
2021/06/26 04:01:16;;;;;;;58.70;2.90;;;15.80;96.60;;;;;;5034125;28;20541;-72
2021/06/26 04:03:44;;;;;;;58.60;2.90;;;15.80;96.60;;;;;;5033936;28;20919;-72
2021/06/26 04:06:11;;;;;;;58.87;3.10;;;15.80;96.40;;;;;;5034154;28;20861;-72
2021/06/26 04:08:38;;;;;;;59.20;3.80;;;15.80;96.10;;;;;;5033947;28;20546;-72
2021/06/26 04:11:05;;;;;;;58.57;3.30;;;15.70;96.10;;;;;;5033873;28;20799;-72
2021/06/26 04:13:31;;;;;;;58.60;3.03;;;15.70;95.60;;;;;;5033570;28;20656;-72
2021/06/26 04:16:00;;;;;;;58.60;2.80;;;15.70;95.70;;;;;;5034138;28;20533;-72
2021/06/26 04:18:26;;;;;;;58.27;2.60;;;15.70;96.40;;;;;;5034251;28;20641;-72
2021/06/26 04:20:53;;;;;;;58.80;3.47;;;15.70;96.40;;;;;;5033475;28;20464;-72
2021/06/26 04:23:20;;;;;;;58.47;2.80;;;15.70;96.30;;;;;;5033471;28;20513;-72
2021/06/26 04:25:48;;;;;;;58.83;3.10;;;15.70;98.50;;;;;;5033603;28;20494;-72
2021/06/26 04:28:15;;;;;;;58.80;3.27;;;15.70;96.80;;;;;;5033452;28;20464;-72
2021/06/26 04:30:42;;;;;;;58.07;2.90;;;15.70;96.40;;;;;;5033483;28;20482;-72
2021/06/26 04:33:11;;;;;;;60.87;4.77;;;15.70;96.50;;;;;;5033237;28;20571;-72
2021/06/26 04:35:38;;;;;;;58.70;3.30;;;15.70;96.60;;;;;;5033562;28;20454;-72
2021/06/26 04:38:05;;;;;;;58.70;3.37;;;15.70;96.30;;;;;;5033409;28;20481;-72
2021/06/26 04:40:32;;;;;;;58.80;3.40;;;15.70;96.30;;;;;;5033206;28;20530;-72
2021/06/26 04:42:59;;;;;;;58.40;3.00;;;15.60;96.70;;;;;;5033106;28;20494;-72
2021/06/26 04:45:26;;;;;;;58.57;2.80;;;15.60;96.60;;;;;;5033442;28;20507;-72
2021/06/26 04:47:53;;;;;;;58.53;2.67;;;15.60;97.00;;;;;;5033363;28;20529;-72
2021/06/26 04:50:21;;;;;;;61.43;5.20;;;15.60;97.00;;;;;;5033152;28;20485;-72
2021/06/26 04:52:48;;;;;;;59.10;3.97;;;15.60;97.10;;;;;;5032688;28;20556;-72
2021/06/26 04:55:15;;;;;;;58.90;3.43;;;15.60;97.40;;;;;;5033011;28;20817;-72
2021/06/26 04:57:42;;;;;;;59.97;3.93;;;15.60;97.30;;;;;;5033221;28;20541;-72
2021/06/26 05:00:10;;;;;;;58.07;3.30;;;15.50;97.80;;;;;;5033074;28;20478;-72
2021/06/26 05:02:37;;;;;;;60.30;4.40;;;15.60;98.20;;;;;;5032479;28;21004;-72
2021/06/26 05:05:05;;;;;;;58.40;2.60;;;15.50;98.80;;;;;;5032870;28;20450;-72
2021/06/26 05:07:33;;;;;;;58.17;2.70;;;15.50;99.20;;;;;;5032898;28;20481;-72
2021/06/26 05:10:00;;;;;;;58.40;3.00;;;15.60;99.20;;;;;;5032827;28;20451;-72
2021/06/26 05:12:27;;;;;;;58.60;2.93;;;15.60;99.40;;;;;;5032354;28;20508;-72
2021/06/26 05:14:53;;;;;;;58.47;2.80;;;15.60;99.60;;;;;;5032679;28;20530;-73
2021/06/26 05:17:20;;;;;;;59.73;3.93;;;15.60;99.90;;;;;;5032753;28;20892;-72
2021/06/26 05:19:47;;;;;;;58.27;2.80;;;15.70;99.90;;;;;;5032649;28;20544;-72
2021/06/26 05:22:14;;;;;;;57.90;2.70;;;15.70;99.90;;;;;;5032042;28;20513;-72
2021/06/26 05:24:43;;;;;;;58.67;3.00;;;15.80;99.90;;;;;;5032424;28;20458;-72
2021/06/26 05:27:10;;;;;;;58.60;3.47;;;15.80;99.90;;;;;;5032738;28;20532;-72
2021/06/26 05:29:41;;;;;;;58.20;2.80;;;15.80;99.60;;;;;;5032546;28;20554;-72
2021/06/26 05:32:08;;;;;;;58.63;3.23;;;15.80;99.50;;;;;;5032136;28;20450;-72
2021/06/26 05:34:36;;;;;;;59.47;3.67;;;15.80;99.20;;;;;;5032351;28;20994;-72
2021/06/26 05:37:03;;;;;;;58.47;2.70;;;15.80;99.00;;;;;;5032612;28;20539;-72
2021/06/26 05:39:30;;;;;;;58.37;3.20;;;15.80;98.80;;;;;;5032529;28;20474;-72
2021/06/26 05:41:58;;;;;;;59.00;3.67;;;15.80;98.90;;;;;;5031971;28;20577;-72
2021/06/26 05:44:25;;;;;;;60.53;3.47;;;15.90;98.80;;;;;;5032172;28;20471;-72
2021/06/26 05:46:52;;;;;;;60.50;4.50;;;15.90;98.50;;;;;;5032230;28;20540;-72
2021/06/26 05:49:19;;;;;;;59.77;4.20;;;16.00;99.10;;;;;;5031554;28;20602;-72
2021/06/26 05:51:46;;;;;;;58.70;2.97;;;16.10;99.10;;;;;;5032072;28;20485;-72
2021/06/26 05:54:13;;;;;;;58.60;2.83;;;16.20;99.10;;;;;;5046417;28;20511;-71
2021/06/26 05:56:40;;;;;;;59.43;3.97;;;16.30;99.40;;;;;;5051794;28;20538;-72
2021/06/26 05:59:08;;;;;;;58.50;3.03;;;16.40;99.00;;;;;;5049900;28;20458;-73
2021/06/26 06:01:35;;;;;;;58.57;2.97;;;16.50;98.20;;;;;;5051235;28;21012;-73
2021/06/26 06:04:02;;;;;;;59.47;3.47;;;16.50;96.90;;;;;;5052006;28;20828;-73
2021/06/26 06:06:28;;;;;;;58.63;3.37;;;16.60;95.90;;;;;;5051962;28;20542;-73
2021/06/26 06:08:55;;;;;;;58.27;2.90;;;16.70;95.90;;;;;;5051749;28;21030;-73
2021/06/26 06:11:22;;;;;;;58.33;2.53;;;16.80;95.50;;;;;;5051405;28;20565;-73
2021/06/26 06:13:49;;;;;;;58.27;3.20;;;17.00;95.80;;;;;;5051453;28;20502;-73
2021/06/26 06:16:18;;;;;;;59.10;3.43;;;17.10;94.90;;;;;;5051641;28;20447;-73
2021/06/26 06:18:45;;;;;;;58.77;3.30;;;17.20;93.90;;;;;;5051596;28;20966;-73
2021/06/26 06:21:12;;;;;;;58.27;2.90;;;17.30;92.70;;;;;;5051667;28;20458;-73
2021/06/26 06:23:38;;;;;;;58.97;3.30;;;17.40;91.80;;;;;;5051351;28;20532;-73
2021/06/26 06:26:05;;;;;;;58.17;2.80;;;17.50;90.40;;;;;;5051115;28;20878;-73
2021/06/26 06:28:32;;;;;;;58.50;3.50;;;17.70;88.80;;;;;;5051089;28;20971;-73
2021/06/26 06:31:00;;;;;;;58.77;3.87;;;17.90;84.40;;;;;;5064329;28;20537;-73
2021/06/26 06:33:29;;;;;;;58.60;3.77;;;18.10;82.70;;;;;;5053507;28;20471;-73
2021/06/26 06:35:56;;;;;;;59.27;3.20;;;18.30;80.70;;;;;;5051690;28;20484;-73
2021/06/26 06:38:23;;;;;;;58.70;2.83;;;18.50;74.10;;;;;;5051677;28;20451;-73
2021/06/26 06:40:50;;;;;;;59.20;3.63;;;18.60;68.40;;;;;;5051671;28;20831;-73
2021/06/26 06:43:16;;;;;;;58.30;3.50;;;18.70;62.00;;;;;;5050995;28;20579;-73
2021/06/26 06:45:43;;;;;;;60.00;4.17;;;18.90;54.20;;;;;;5051689;28;20479;-73
2021/06/26 06:48:10;;;;;;;59.63;4.43;;;19.00;47.10;;;;;;5051629;28;20535;-73
2021/06/26 06:50:38;;;;;;;59.07;3.03;;;19.20;36.70;;;;;;5051639;28;20486;-73
2021/06/26 06:53:05;;;;;;;59.17;3.67;;;19.30;20.60;;;;;;5051185;28;20499;-73
2021/06/26 06:55:32;;;;;;;59.50;3.50;;;19.40;15.80;;;;;;5051491;28;20475;-73
2021/06/26 06:57:59;;;;;;;59.47;3.80;;;19.50;4.80;;;;;;5051091;28;20483;-73
2021/06/26 07:00:27;;;;;;;60.60;4.37;;;19.60;2.10;;;;;;5053766;28;20458;-73
2021/06/26 07:02:54;;;;;;;58.13;3.07;;;19.70;1.00;;;;;;5064454;28;20887;-73
2021/06/26 07:05:20;;;;;;;58.30;3.70;;;19.80;1.00;;;;;;5035397;28;20446;-73
2021/06/26 07:07:49;;;;;;;59.27;3.30;;;19.90;1.00;;;;;;5035284;28;20527;-73
2021/06/26 07:10:16;;;;;;;58.20;2.60;;;20.00;1.00;;;;;;5035057;28;20473;-73
2021/06/26 07:12:42;;;;;;;58.60;3.10;;;20.00;1.00;;;;;;5034559;28;20510;-73
2021/06/26 07:15:11;;;;;;;61.10;4.70;;;20.00;1.00;;;;;;5035347;28;20496;-73
2021/06/26 07:17:38;;;;;;;58.83;3.60;;;20.00;1.00;;;;;;5035003;28;20486;-73
2021/06/26 07:20:06;;;;;;;59.07;3.80;;;20.00;1.00;;;;;;5034874;28;20689;-73
2021/06/26 07:22:33;;;;;;;59.13;3.27;;;19.90;1.00;;;;;;5034472;28;20580;-73
2021/06/26 07:25:01;;;;;;;58.03;2.80;;;19.90;1.00;;;;;;5034573;28;20546;-73
2021/06/26 07:27:28;;;;;;;58.30;2.87;;;19.90;1.00;;;;;;5034994;28;20533;-73
2021/06/26 07:29:55;;;;;;;59.87;3.00;;;20.00;1.00;;;;;;5035072;28;20483;-73
2021/06/26 07:32:22;;;;;;;59.17;3.47;;;20.00;1.00;;;;;;5033355;28;20528;-73
2021/06/26 07:34:49;;;;;;;59.00;3.30;;;20.00;1.00;;;;;;5050345;28;20540;-73
2021/06/26 07:37:15;;;;;;;58.87;3.80;;;20.00;1.00;;;;;;5054586;28;21008;-73
2021/06/26 07:39:42;;;;;;;58.60;3.00;;;20.10;1.00;;;;;;5054406;28;20486;-74
2021/06/26 07:42:11;;;;;;;59.33;3.53;;;20.20;1.00;;;;;;5054136;28;20568;-74
2021/06/26 07:44:38;;;;;;;58.30;3.00;;;20.20;1.00;;;;;;5054603;28;20445;-73
2021/06/26 07:47:05;;;;;;;58.90;2.93;;;20.20;1.00;;;;;;5054408;28;20455;-73
2021/06/26 07:49:32;;;;;;;58.10;3.00;;;20.30;1.00;;;;;;5054338;28;20452;-73
2021/06/26 07:51:58;;;;;;;58.70;3.30;;;20.50;1.00;;;;;;5054069;28;20537;-73
2021/06/26 07:54:26;;;;;;;59.67;3.57;;;20.60;1.00;;;;;;5054015;28;20474;-73
2021/06/26 07:56:53;;;;;;;59.23;4.20;;;20.70;1.00;;;;;;5054097;28;20521;-73
2021/06/26 07:59:21;;;;;;;59.07;3.87;;;20.90;1.00;;;;;;5054357;28;20552;-73
2021/06/26 08:01:48;;;;;;;58.10;2.47;;;21.00;1.00;;;;;;5052686;28;20452;-73
2021/06/26 08:04:15;;;;;;;58.80;3.40;;;21.20;1.00;;;;;;5036450;28;20478;-74
2021/06/26 08:06:42;;;;;;;59.50;4.27;;;21.40;1.00;;;;;;5053874;28;20862;-73
2021/06/26 08:09:08;;;;;;;58.07;2.77;;;21.60;1.00;;;;;;5054074;28;20491;-73
2021/06/26 08:11:35;;;;;;;58.30;2.60;;;21.70;1.00;;;;;;5053104;28;20484;-73
2021/06/26 08:14:04;;;;;;;58.40;2.80;;;21.80;1.00;;;;;;5053868;28;20546;-74
2021/06/26 08:16:32;;;;;;;59.70;3.70;;;22.00;1.00;;;;;;5053926;28;20453;-73
2021/06/26 08:18:59;;;;;;;58.17;2.80;;;22.10;1.00;;;;;;5053808;28;20453;-73
2021/06/26 08:21:26;;;;;;;59.63;3.87;;;22.30;1.00;;;;;;5053266;28;20487;-74
2021/06/26 08:23:53;;;;;;;58.60;2.90;;;22.40;1.00;;;;;;5053738;28;20480;-74
2021/06/26 08:26:20;;;;;;;60.00;3.30;;;22.50;1.00;;;;;;5053502;28;20590;-73
2021/06/26 08:28:47;;;;;;;58.27;2.50;;;22.60;1.00;;;;;;5053690;28;20578;-73
2021/06/26 08:31:14;;;;;;;58.20;2.60;;;22.60;1.00;;;;;;5053351;28;20458;-73
2021/06/26 08:33:42;;;;;;;58.97;3.37;;;22.60;1.00;;;;;;5044138;28;20497;-73
2021/06/26 08:36:10;;;;;;;58.90;3.33;;;22.70;1.00;;;;;;5043715;28;20453;-74
2021/06/26 08:38:39;;;;;;;58.07;2.50;;;22.70;1.00;;;;;;5053452;28;20538;-74
2021/06/26 08:41:07;;;;;;;58.27;2.50;;;22.70;1.00;;;;;;5053450;28;20444;-73
2021/06/26 08:43:34;;;;;;;58.13;2.90;;;22.90;1.00;;;;;;5053090;28;20495;-73
2021/06/26 08:46:01;;;;;;;58.37;3.07;;;23.00;1.00;;;;;;5053240;28;20444;-74
2021/06/26 08:48:29;;;;;;;58.60;3.40;;;23.20;1.00;;;;;;5052927;28;20457;-74
2021/06/26 08:50:57;;;;;;;58.93;3.03;;;23.30;1.00;;;;;;5053311;28;20538;-74
2021/06/26 08:53:24;;;;;;;58.40;3.30;;;23.50;1.00;;;;;;5053177;28;20558;-73
2021/06/26 08:55:53;;;;;;;58.17;3.00;;;23.80;1.00;;;;;;5053165;28;20550;-74
2021/06/26 08:58:21;;;;;;;59.13;3.10;;;24.00;1.00;;;;;;5053204;28;20448;-73
2021/06/26 09:00:49;;;;;;;58.67;2.87;;;24.30;1.00;;;;;;5053158;28;20451;-74
2021/06/26 09:03:17;;;;;;;58.50;2.83;;;24.40;1.00;;;;;;5053181;28;20491;-74
2021/06/26 09:05:47;;;;;;;58.07;2.30;;;24.50;1.00;;;;;;5051769;28;20924;-74
2021/06/26 09:08:17;;;;;;;58.27;2.70;;;24.50;1.00;;;;;;5052918;28;20475;-74
2021/06/26 09:10:46;;;;;;;58.20;3.10;;;24.60;1.00;;;;;;5053206;28;20455;-74
2021/06/26 09:13:17;;;;;;;58.10;2.80;;;24.70;1.00;;;;;;5052509;28;20460;-74
2021/06/26 09:15:44;;;;;;;58.40;3.03;;;24.90;1.00;;;;;;5052989;28;20459;-74
2021/06/26 09:18:16;;;;;;;58.20;2.93;;;25.20;1.00;;;;;;5052920;28;20552;-74
2021/06/26 09:20:47;;;;;;;57.90;2.47;;;25.40;1.00;;;;;;5053132;28;20871;-74
2021/06/26 09:23:20;;;;;;;58.10;2.93;;;25.40;1.00;;;;;;5051323;28;20488;-74
2021/06/26 09:25:48;;;;;;;58.47;2.53;;;25.40;1.00;;;;;;5052442;28;20460;-73
2021/06/26 09:28:24;;;;;;;58.20;2.87;;;25.40;1.00;;;;;;5052561;28;20948;-73
2021/06/26 09:30:53;;;;;;;58.37;3.07;;;25.40;1.00;;;;;;5052569;28;20484;-74
2021/06/26 09:33:22;;;;;;;58.17;2.57;;;25.40;1.00;;;;;;5052374;28;20498;-74
2021/06/26 09:36:01;;;;;;;58.27;2.87;;;25.60;1.00;;;;;;5052485;28;20453;-75
2021/06/26 09:38:30;;;;;;;57.73;2.67;;;25.80;1.00;;;;;;5052235;28;20795;-75
2021/06/26 09:40:58;;;;;;;58.83;2.80;;;25.80;1.00;;;;;;5052403;28;20874;-74
2021/06/26 09:43:27;;;;;;;58.07;2.57;;;25.90;1.00;;;;;;5051844;28;20584;-74
2021/06/26 09:46:06;;;;;;;58.90;3.40;;;26.10;1.00;;;;;;5052429;28;20532;-75
2021/06/26 09:48:33;;;;;;;58.47;2.80;;;26.20;1.00;;;;;;5052267;28;20449;-75
2021/06/26 09:51:00;;;;;;;58.53;3.30;;;26.30;1.00;;;;;;5051981;28;20477;-75
2021/06/26 09:53:27;;;;;;;57.67;2.13;;;26.30;1.00;;;;;;5052039;28;20555;-75
2021/06/26 09:55:55;;;;;;;58.20;2.57;;;26.20;1.00;;;;;;5052295;28;20457;-73
2021/06/26 09:58:22;;;;;;;58.23;2.37;;;26.10;1.00;;;;;;5051973;28;20489;-72
2021/06/26 10:00:49;;;;;;;58.13;2.67;;;26.10;1.00;;;;;;5052121;28;20554;-73
2021/06/26 10:03:18;;;;;;;57.90;2.73;;;26.00;1.00;;;;;;5051486;28;20853;-73
2021/06/26 10:05:45;;;;;;;58.00;2.17;;;26.00;1.00;;;;;;5051864;28;20458;-74
2021/06/26 10:08:14;;;;;;;58.00;2.53;;;26.30;1.00;;;;;;5052062;28;20454;-74
2021/06/26 10:10:41;;;;;;;58.03;2.50;;;26.60;1.00;;;;;;5051820;28;20540;-74
2021/06/26 10:13:12;;;;;;;58.07;2.60;;;26.60;1.00;;;;;;5051546;28;21060;-74
2021/06/26 10:15:39;;;;;;;58.30;2.70;;;26.50;1.00;;;;;;5051819;28;20799;-74
2021/06/26 10:18:10;;;;;;;58.10;2.80;;;26.60;1.00;;;;;;5051608;28;20569;-74
2021/06/26 10:20:37;;;;;;;59.80;2.97;;;26.80;1.00;;;;;;5052004;28;20481;-73
2021/06/26 10:23:05;;;;;;;57.47;2.40;;;27.30;1.00;;;;;;5051292;28;20486;-73
2021/06/26 10:25:32;;;;;;;57.80;2.57;;;27.90;1.00;;;;;;5051684;28;20468;-73
2021/06/26 10:28:07;;;;;;;58.37;2.60;;;28.50;1.00;;;;;;5051754;28;20444;-74
2021/06/26 10:30:36;;;;;;;58.87;3.50;;;28.90;1.00;;;;;;5051688;28;20454;-73
2021/06/26 10:33:05;;;;;;;59.00;3.30;;;29.20;1.00;;;;;;5051220;28;20471;-73
2021/06/26 10:35:34;;;;;;;58.40;2.83;;;29.20;1.00;;;;;;5054778;28;20498;-73
2021/06/26 10:38:07;;;;;;;57.90;2.30;;;29.30;1.00;;;;;;5055596;28;20523;-74
2021/06/26 10:40:42;;;;;;;58.03;2.80;;;29.80;1.00;;;;;;5055835;28;20456;-74
2021/06/26 10:43:17;;;;;;;58.47;2.63;;;30.80;1.00;;;;;;5055443;28;20536;-74
2021/06/26 10:45:46;;;;;;;58.20;3.13;;;31.70;1.00;;;;;;5056126;28;20477;-74
2021/06/26 10:48:23;;;;;;;58.17;2.80;;;32.80;1.00;;;;;;5055658;28;20487;-74
2021/06/26 10:50:53;;;;;;;58.07;2.67;;;33.60;1.00;;;;;;5055543;28;20440;-74
2021/06/26 10:53:34;;;;;;;58.00;2.60;;;34.10;1.00;;;;;;5055092;28;20563;-74
2021/06/26 10:56:05;;;;;;;57.90;2.50;;;;;;;;;;5055661;28;20535;-74
2021/06/26 10:58:34;;;;;;;57.60;2.77;;;35.50;1.00;;;;;;5055508;28;20476;-74
2021/06/26 11:01:13;;;;;;;58.10;3.03;;;35.80;1.00;;;;;;5055336;28;20476;-74
2021/06/26 11:03:41;;;;;;;57.60;2.60;;;35.90;1.00;;;;;;5055041;28;20570;-74
2021/06/26 11:06:19;;;;;;;57.90;2.43;;;36.00;1.00;;;;;;5055444;28;20456;-74
2021/06/26 11:08:57;;;;;;;57.90;2.57;;;35.80;1.00;;;;;;5055193;28;20480;-74
2021/06/26 11:11:32;;;;;;;58.20;3.00;;;35.10;1.00;;;;;;5054862;28;20535;-74
2021/06/26 11:14:11;;;;;;;57.27;2.43;;;34.80;1.00;;;;;;5055074;28;20539;-74
2021/06/26 11:16:41;;;;;;;58.10;2.73;;;35.00;1.00;;;;;;5055383;28;20490;-74
2021/06/26 11:19:08;;;;;;;57.47;2.30;;;35.30;1.00;;;;;;5055396;28;20440;-74
2021/06/26 11:21:39;;;;;;;57.67;2.60;;;36.10;1.00;;;;;;5054653;28;20483;-72
2021/06/26 11:24:07;;;;;;;57.63;3.03;;;37.10;1.00;;;;;;5054750;28;20530;-72
2021/06/26 11:26:44;;;;;;;58.07;3.20;;;38.10;1.00;;;;;;5055307;28;20455;-72
2021/06/26 11:29:21;;;;;;;58.23;2.70;;;38.80;1.00;;;;;;5054976;28;20538;-72
2021/06/26 11:31:49;;;;;;;57.40;2.40;;;38.50;1.00;;;;;;5054416;28;20530;-74
2021/06/26 11:34:16;;;;;;;57.33;2.40;;;37.90;1.00;;;;;;5054602;28;20558;-73
2021/06/26 11:36:43;;;;;;;57.37;2.53;;;38.10;1.00;;;;;;5054665;28;20499;-73
2021/06/26 11:39:10;;;;;;;57.70;3.03;;;38.40;1.00;;;;;;5054466;28;20476;-73
2021/06/26 11:41:37;;;;;;;58.00;3.47;;;37.90;1.00;;;;;;5054442;28;20451;-73
2021/06/26 11:44:06;;;;;;;57.77;2.80;;;37.30;1.00;;;;;;5054377;28;20583;-73
2021/06/26 11:46:33;;;;;;;58.10;3.30;;;37.20;1.00;;;;;;5053650;28;20456;-73
2021/06/26 11:49:01;;;;;;;57.97;2.60;;;37.40;1.00;;;;;;5054376;28;20811;-73
2021/06/26 11:51:28;;;;;;;57.87;2.93;;;36.90;1.00;;;;;;5054150;28;20498;-72
2021/06/26 11:53:55;;;;;;;58.10;2.90;;;36.60;1.00;;;;;;5054104;28;20543;-73
2021/06/26 11:56:23;;;;;;;57.10;2.50;;;36.20;1.00;;;;;;5054444;28;20531;-73
2021/06/26 11:58:52;;;;;;;57.60;3.37;;;36.20;1.00;;;;;;5054427;28;20531;-73
2021/06/26 12:01:24;;;;;;;58.00;2.40;;;36.70;1.00;;;;;;5054091;28;21006;-73
2021/06/26 12:03:51;;;;;;;57.70;2.77;;;37.00;1.00;;;;;;5053944;28;20575;-73
2021/06/26 12:06:19;;;;;;;57.50;2.53;;;37.10;1.00;;;;;;5053879;28;21031;-73
2021/06/26 12:08:47;;;;;;;57.53;2.50;;;37.00;1.00;;;;;;5054167;28;20484;-73
2021/06/26 12:11:16;;;;;;;56.97;2.20;;;36.80;1.00;;;;;;5054140;28;20462;-74
2021/06/26 12:13:43;;;;;;;57.27;2.40;;;36.40;1.00;;;;;;5053743;28;20555;-73
2021/06/26 12:16:13;;;;;;;58.20;2.80;;;36.50;1.00;;;;;;5053924;28;20444;-74
2021/06/26 12:18:47;;;;;;;57.43;2.73;;;37.00;1.00;;;;;;5053738;28;20539;-73
2021/06/26 12:21:15;;;;;;;57.90;2.40;;;37.10;1.00;;;;;;5053738;28;20817;-73
2021/06/26 12:23:47;;;;;;;57.67;2.30;;;37.00;1.00;;;;;;5053657;28;20578;-74
2021/06/26 12:26:19;;;;;;;58.00;2.93;;;36.60;1.00;;;;;;5053716;28;20910;-73
2021/06/26 12:28:46;;;;;;;57.23;2.23;;;36.50;1.00;;;;;;5053658;28;20479;-73
2021/06/26 12:31:13;;;;;;;58.00;3.07;;;36.20;1.00;;;;;;5053488;28;20535;-73
2021/06/26 12:33:40;;;;;;;58.37;2.40;;;35.50;1.00;;;;;;5053342;28;20980;-75
2021/06/26 12:36:14;;;;;;;58.00;2.67;;;34.80;1.00;;;;;;5053745;28;20449;-73
2021/06/26 12:38:42;;;;;;;57.57;2.30;;;34.20;1.00;;;;;;5053659;28;20452;-73
2021/06/26 12:41:20;;;;;;;57.50;2.53;;;33.90;1.00;;;;;;5053187;28;20448;-73
2021/06/26 12:43:48;;;;;;;57.90;2.40;;;34.30;1.00;;;;;;5053097;28;20500;-74